Airfield :
LOGIN :

Register | Disclaimer

   EN    FR    IT 

 










Legend :    VFR   Marginal VFR   IFR   Intensive IFR   Very Intensive IFR
Visi :
Ceiling :
>= 8 km
>= 3000ft
5 to 8 km
1000 to 3000 ft
1500m to 5 km
500 to 1000 ft
800 to 1500m
200 to 500 ft
< 800m
< 200 ft
Symbols :   Thunderstorms  Fog  Heavy snow  Heavy precipitations  Wind > 20 kt
SIGMETs :     Misc.  Thunderstorms  Icing  Turbulence  Mountain Waves  Volcanic Ashes






- Airport Elevation : 285 ft
- IATA code : GOZ


LBGO - Gorna Oryahovitsa

CURRENT METAR :
  • 131600Z AUTO 13005KT 100V160 9999 SCT130/// 33/16 Q1010 NOSIG

EXPIRED METARs :
  • 131530Z AUTO 14009KT 100V160 9999 FEW100/// SCT120/// 33/16 Q1010 NOSIG
  • 131500Z AUTO 01011KT 340V050 9999 FEW079/// BKN100/// BKN150/// 34/15 Q1010 NOSIG
  • 131430Z AUTO VRB03KT 9999 FEW100/// SCT170/// 38/14 Q1010 NOSIG
  • 131400Z AUTO 07007KT 030V100 9999 FEW120/// 37/13 Q1010 NOSIG
  • 131330Z AUTO 03007KT 360V060 9999 FEW036/// SCT110/// BKN160/// 36/16 Q1010 NOSIG
  • 131300Z AUTO VRB05KT 9999 FEW099/// BKN140/// 37/14 Q1010 NOSIG
  • 131230Z AUTO 10004KT 030V200 9999 NCD 37/14 Q1010 NOSIG
  • 131200Z AUTO VRB05KT 9999 BKN100/// 37/14 Q1011 NOSIG
  • 131130Z AUTO 07008KT 030V100 9999 FEW092/// 36/14 Q1011 NOSIG

TAF TAF LBGO
Valid from the 13 at 12:00 until the 14 at 12:00 UTC


131100Z 1312/1412 10010KT CAVOK
BECMG 1318/1320 VRB04KT
BECMG 1408/1410 06010KT



MET'MAP, your aeronautical weather chart ! - Copyright ORBIFLY December 2007 - Disclaimer

ORBIFLY MET'MAP TEAM :

Programming & Development : Alexandra Zaïnal
Original concept : Baudouin d'Aumeries
Technical & hardware support : Manuel Goepfert
Assistance : Marc-Olivier Méhu




SOURCES & CREDITS :

   NOAA